Lobo Marinho — CQTW — position and weather

sailwx.info

Track history (hours):
 
Tides and Currents Weather Stations Pressure Air Temp Water Temp Dewpoint Dewpoint Depression Visibility Wind Speed Wind Dir Waves Ship Positions

Lobo Marinho

Last reported at 2018-Jan-04 01:22 UTC. Time now 2018-Jan-22 04:38 UTC.
Position N 32°38' W 016°55'.
Warning: this ship's position is 18 days out of date.

Length 112 m; draft 4.8 m.

Type: Passenger vessel. MMSI: 255997000.

Date/timePositionNaut miles runAvg speedWind from/ knotsBaromVisibWave heightAir tempDewpointWater temp
2018-Jan-04 01:22N 32°38' W 016°55'0 0.0
2018-Jan-04 00:49N 32°38' W 016°55'0 0.0
2018-Jan-04 00:19N 32°38' W 016°55'0 0.0
2018-Jan-03 23:40N 32°38' W 016°55'0 0.0
2018-Jan-03 21:40N 32°38' W 016°55'0 0.1
2018-Jan-03 20:36N 32°39' W 016°55'0 1.7
2018-Jan-03 20:30N 32°39' W 016°55'3317.0
2018-Jan-03 18:34N 32°58' W 016°23'118.1
2018-Jan-03 18:29N 32°59' W 016°22'5 0.7
2018-Jan-03 11:02N 33°04' W 016°19'0 0.0
2018-Jan-03 10:59N 33°04' W 016°19'0 0.2
2018-Jan-03 10:30N 33°04' W 016°19'3417.0
2018-Jan-03 08:31N 32°39' W 016°47'318.2
2018-Jan-03 08:22N 32°38' W 016°49'5 0.6
2018-Jan-02 23:43N 32°38' W 016°55'0 0.0
2018-Jan-02 23:25N 32°38' W 016°55'39 3.3
2018-Jan-02 11:34N 33°04' W 016°19'0 0.1
2018-Jan-02 11:31N 33°04' W 016°19'0 0.1
2018-Jan-02 10:29N 33°04' W 016°19'  
Track history (hours):
 
Tides and Currents Weather Stations Pressure Air Temp Water Temp Dewpoint Dewpoint Depression Visibility Wind Speed Wind Dir Waves Ship Positions

Lobo Marinho

Last reported at 2018-Jan-04 01:22 UTC. Time now 2018-Jan-22 04:38 UTC.
Position N 32°38' W 016°55'.
Warning: this ship's position is 18 days out of date.

Length 112 m; draft 4.8 m.

Type: Passenger vessel. MMSI: 255997000.

Date/timePositionNaut miles runAvg speedWind from/ knotsBaromVisibWave heightAir tempDewpointWater temp
2018-Jan-04 01:22N 32°38' W 016°55'0 0.0
2018-Jan-04 00:49N 32°38' W 016°55'0 0.0
2018-Jan-04 00:19N 32°38' W 016°55'0 0.0
2018-Jan-03 23:40N 32°38' W 016°55'0 0.0
2018-Jan-03 21:40N 32°38' W 016°55'0 0.1
2018-Jan-03 20:36N 32°39' W 016°55'0 1.7
2018-Jan-03 20:30N 32°39' W 016°55'3317.0
2018-Jan-03 18:34N 32°58' W 016°23'118.1
2018-Jan-03 18:29N 32°59' W 016°22'5 0.7
2018-Jan-03 11:02N 33°04' W 016°19'0 0.0
2018-Jan-03 10:59N 33°04' W 016°19'0 0.2
2018-Jan-03 10:30N 33°04' W 016°19'3417.0
2018-Jan-03 08:31N 32°39' W 016°47'318.2
2018-Jan-03 08:22N 32°38' W 016°49'5 0.6
2018-Jan-02 23:43N 32°38' W 016°55'0 0.0
2018-Jan-02 23:25N 32°38' W 016°55'39 3.3
2018-Jan-02 11:34N 33°04' W 016°19'0 0.1
2018-Jan-02 11:31N 33°04' W 016°19'0 0.1
2018-Jan-02 10:29N 33°04' W 016°19'  

Dump ship's entire track history